createdAt,value
2023-03-04T00:00:42.572Z,106.22
2023-03-04T00:03:14.870Z,135.05
2023-03-04T00:05:42.451Z,94.78
2023-03-04T00:08:09.619Z,105.82
2023-03-04T00:10:36.886Z,90.90
2023-03-04T00:13:04.121Z,93.80
2023-03-04T00:15:31.345Z,100.40
2023-03-04T00:17:58.596Z,103.28
2023-03-04T00:20:25.784Z,102.95
2023-03-04T00:22:53.309Z,104.38
2023-03-04T00:25:20.525Z,97.30
2023-03-04T00:27:47.917Z,110.90
2023-03-04T00:30:15.350Z,97.28
2023-03-04T00:32:43.033Z,89.60
2023-03-04T00:35:10.483Z,80.70
2023-03-04T00:37:37.660Z,79.53
2023-03-04T00:40:06.146Z,88.78
2023-03-04T00:42:33.436Z,96.97
2023-03-04T00:45:00.996Z,122.05
2023-03-04T00:47:28.269Z,146.38
2023-03-04T00:49:56.185Z,104.15
2023-03-04T00:52:23.339Z,100.90
2023-03-04T00:54:50.574Z,100.90
2023-03-04T00:57:17.835Z,84.90
2023-03-04T00:59:45.766Z,82.90
2023-03-04T01:02:13.348Z,86.88
2023-03-04T01:04:41.375Z,75.85
2023-03-04T01:07:09.010Z,93.60
2023-03-04T01:09:36.197Z,96.55
2023-03-04T01:12:03.760Z,126.35
2023-03-04T01:14:30.981Z,87.15
2023-03-04T01:16:58.885Z,92.10
2023-03-04T01:19:26.384Z,83.88
2023-03-04T01:21:53.766Z,94.53
2023-03-04T01:24:22.394Z,192.15
2023-03-04T01:26:49.556Z,131.73
2023-03-04T01:29:16.830Z,101.63
2023-03-04T01:31:44.013Z,86.90
2023-03-04T01:34:11.280Z,103.18
2023-03-04T01:36:38.489Z,92.75
2023-03-04T01:39:06.050Z,98.47
2023-03-04T01:41:33.344Z,83.50
2023-03-04T01:44:01.991Z,100.22
2023-03-04T01:46:30.841Z,119.30
2023-03-04T01:48:59.452Z,99.05
2023-03-04T01:51:26.802Z,137.88
2023-03-04T01:53:54.426Z,122.18
2023-03-04T01:56:39.044Z,96.95
2023-03-04T01:59:29.927Z,128.25
2023-03-04T02:02:00.010Z,104.47
2023-03-04T02:04:32.326Z,137.88
2023-03-04T02:07:01.329Z,87.68
2023-03-04T02:09:31.387Z,105.88
2023-03-04T02:11:58.987Z,106.22
2023-03-04T02:14:26.274Z,132.80
2023-03-04T02:16:53.765Z,204.25
2023-03-04T02:19:38.553Z,135.30
2023-03-04T02:22:06.160Z,131.18
2023-03-04T02:24:42.798Z,223.50
2023-03-04T02:27:12.771Z,178.45
2023-03-04T02:29:40.401Z,133.13
2023-03-04T02:32:12.440Z,199.90
2023-03-04T02:34:47.945Z,654.13
2023-03-04T02:37:16.624Z,367.92
2023-03-04T02:39:47.571Z,127.60
2023-03-04T02:42:17.723Z,272.95
2023-03-04T02:44:47.772Z,125.40
2023-03-04T02:47:18.147Z,164.98
2023-03-04T02:49:46.416Z,381.92
2023-03-04T02:52:22.184Z,113.10
2023-03-04T02:54:49.386Z,180.77
2023-03-04T02:57:17.728Z,157.90
2023-03-04T02:59:48.909Z,120.10
2023-03-04T03:02:20.110Z,113.68
2023-03-04T03:04:47.325Z,169.85
2023-03-04T03:07:18.436Z,380.65
2023-03-04T03:09:45.619Z,218.68
2023-03-04T03:12:12.770Z,152.10
2023-03-04T03:14:40.096Z,101.10
2023-03-04T03:19:36.892Z,116.93
2023-03-04T03:22:07.189Z,195.35
2023-03-04T03:24:34.716Z,170.32
2023-03-04T03:27:01.858Z,115.22
2023-03-04T03:29:29.398Z,242.95
2023-03-04T03:31:56.745Z,269.52
2023-03-04T03:34:24.233Z,323.27
2023-03-04T03:36:51.760Z,201.35
2023-03-04T03:39:19.464Z,205.43
2023-03-04T03:41:46.612Z,188.88
2023-03-04T03:44:13.835Z,119.72
2023-03-04T03:46:41.119Z,131.82
2023-03-04T03:49:08.300Z,157.32
2023-03-04T03:51:35.451Z,106.32
2023-03-04T03:54:02.667Z,112.80
2023-03-04T03:56:29.862Z,108.85
2023-03-04T03:58:57.381Z,109.28
2023-03-04T04:01:24.544Z,107.47
2023-03-04T04:03:52.504Z,93.10
2023-03-04T04:06:19.603Z,93.85
2023-03-04T04:08:46.872Z,103.32
2023-03-04T04:11:14.165Z,93.63
2023-03-04T04:13:41.266Z,132.68
2023-03-04T04:16:10.337Z,86.30
2023-03-04T04:18:38.050Z,84.93
2023-03-04T04:21:05.815Z,112.40
2023-03-04T04:23:33.402Z,123.20
2023-03-04T04:26:00.696Z,105.60
2023-03-04T04:28:28.072Z,96.47
2023-03-04T04:30:55.558Z,90.80
2023-03-04T04:33:22.790Z,122.13
2023-03-04T04:35:51.149Z,85.15
2023-03-04T04:38:18.515Z,151.27
2023-03-04T04:40:45.684Z,96.53
2023-03-04T04:43:12.915Z,85.88
2023-03-04T04:45:40.932Z,95.55
2023-03-04T04:48:08.466Z,84.45
2023-03-04T04:50:35.942Z,83.00
2023-03-04T04:53:03.251Z,66.72
2023-03-04T04:55:30.519Z,89.35
2023-03-04T04:57:57.851Z,68.82
2023-03-04T05:00:25.167Z,92.20
2023-03-04T05:02:52.438Z,214.45
2023-03-04T05:05:19.850Z,89.88
2023-03-04T05:07:47.140Z,81.50
2023-03-04T05:10:14.374Z,88.90
2023-03-04T05:12:43.357Z,81.97
2023-03-04T05:15:11.221Z,74.28
2023-03-04T05:17:38.538Z,122.25
2023-03-04T05:20:06.635Z,92.03
2023-03-04T05:22:34.271Z,93.53
2023-03-04T05:25:01.657Z,84.35
2023-03-04T05:27:29.061Z,80.80
2023-03-04T05:29:59.242Z,80.78
2023-03-04T05:32:27.176Z,72.47
2023-03-04T05:34:54.343Z,69.43
2023-03-04T05:37:21.527Z,63.45
2023-03-04T05:39:48.684Z,74.45
2023-03-04T05:42:15.761Z,64.65
2023-03-04T05:44:43.101Z,80.32
2023-03-04T05:47:10.288Z,80.95
2023-03-04T05:49:37.597Z,86.28
2023-03-04T05:52:04.824Z,86.78
2023-03-04T05:54:32.036Z,83.60
2023-03-04T05:56:59.267Z,76.68
2023-03-04T05:59:26.438Z,167.13
2023-03-04T06:01:53.667Z,112.68
2023-03-04T06:04:20.888Z,90.60
2023-03-04T06:06:48.194Z,106.57
2023-03-04T06:09:15.540Z,91.75
2023-03-04T06:11:42.847Z,102.18
2023-03-04T06:14:10.109Z,105.70
2023-03-04T06:16:37.400Z,110.25
2023-03-04T06:19:04.780Z,108.78
2023-03-04T06:21:32.069Z,86.30
2023-03-04T06:23:59.253Z,78.47
2023-03-04T06:26:26.791Z,105.55
2023-03-04T06:28:56.412Z,87.40
2023-03-04T06:33:50.814Z,75.65
2023-03-04T06:36:18.237Z,70.28
2023-03-04T06:38:45.545Z,79.72
2023-03-04T06:41:13.583Z,89.05
2023-03-04T06:43:40.982Z,95.03
2023-03-04T06:46:09.059Z,96.25
2023-03-04T06:48:36.628Z,90.55
2023-03-04T06:51:11.695Z,94.63
2023-03-04T06:53:40.060Z,97.35
2023-03-04T06:56:09.933Z,98.95
2023-03-04T06:58:37.617Z,85.38
2023-03-04T07:01:19.932Z,81.25
2023-03-04T07:03:49.388Z,77.57
2023-03-04T07:06:20.375Z,115.13
2023-03-04T07:08:48.320Z,86.18
2023-03-04T07:11:16.593Z,97.20
2023-03-04T07:13:44.321Z,80.00
2023-03-04T07:16:15.035Z,83.22
2023-03-04T07:18:42.294Z,105.25
2023-03-04T07:21:10.241Z,106.80
2023-03-04T07:23:38.157Z,111.03
2023-03-04T07:26:06.001Z,104.95
2023-03-04T07:28:34.612Z,102.68
2023-03-04T07:31:30.563Z,108.60
2023-03-04T07:34:00.594Z,102.68
2023-03-04T07:36:29.156Z,102.40
2023-03-04T07:38:56.869Z,93.93
2023-03-04T07:41:27.263Z,96.97
2023-03-04T07:43:59.174Z,99.78
2023-03-04T07:46:26.354Z,99.13
2023-03-04T07:48:55.598Z,81.95
2023-03-04T07:51:25.676Z,86.05
2023-03-04T07:53:58.120Z,88.50
2023-03-04T07:56:29.923Z,79.90
2023-03-04T07:58:57.475Z,72.43
2023-03-04T08:01:34.234Z,85.32
2023-03-04T08:04:03.671Z,100.95
2023-03-04T08:09:05.800Z,94.57
2023-03-04T08:11:35.360Z,85.57
2023-03-04T08:16:30.426Z,67.43
2023-03-04T08:19:01.312Z,65.97
2023-03-04T08:21:29.826Z,57.22
2023-03-04T08:24:07.520Z,57.92
2023-03-04T08:26:42.179Z,56.75
2023-03-04T08:29:14.509Z,54.25
2023-03-04T08:31:42.395Z,48.78
2023-03-04T08:34:10.615Z,47.58
2023-03-04T08:36:38.314Z,66.50
2023-03-04T08:39:05.878Z,57.42
2023-03-04T08:41:33.330Z,56.78
2023-03-04T08:44:01.151Z,44.15
2023-03-04T08:46:29.078Z,47.83
2023-03-04T08:48:56.398Z,48.92
2023-03-04T08:51:23.615Z,43.75
2023-03-04T08:53:50.975Z,39.65
2023-03-04T08:56:18.281Z,34.05
2023-03-04T08:58:45.776Z,39.35
2023-03-04T09:01:14.547Z,34.47
2023-03-04T09:03:42.449Z,37.08
2023-03-04T09:06:14.403Z,42.25
2023-03-04T09:08:42.560Z,35.63
2023-03-04T09:11:10.807Z,30.35
2023-03-04T09:13:38.139Z,27.02
2023-03-04T09:16:11.234Z,26.77
2023-03-04T09:18:39.551Z,24.80
2023-03-04T09:21:08.139Z,34.90
2023-03-04T09:23:36.099Z,34.10
2023-03-04T09:26:20.295Z,24.77
2023-03-04T09:28:55.575Z,29.20
2023-03-04T09:31:24.183Z,31.70
2023-03-04T09:33:53.279Z,41.10
2023-03-04T09:36:21.134Z,30.30
2023-03-04T09:38:48.537Z,32.15
2023-03-04T09:41:23.730Z,30.52
2023-03-04T09:43:53.748Z,36.05
2023-03-04T09:46:35.657Z,24.98
2023-03-04T09:49:06.740Z,31.85
2023-03-04T09:51:56.162Z,27.25
2023-03-04T09:55:15.296Z,20.83
2023-03-04T09:58:05.326Z,35.63
2023-03-04T10:01:05.207Z,28.55
2023-03-04T10:04:13.425Z,20.67
2023-03-04T10:06:46.349Z,34.03
2023-03-04T10:09:19.608Z,24.40
2023-03-04T10:11:59.243Z,25.08
2023-03-04T10:15:13.411Z,21.60
2023-03-04T10:17:46.455Z,22.17
2023-03-04T10:20:25.942Z,18.67
2023-03-04T10:23:01.758Z,25.35
2023-03-04T10:25:32.542Z,27.27
2023-03-04T10:28:04.502Z,24.55
2023-03-04T10:31:08.664Z,21.55
2023-03-04T10:33:39.081Z,23.20
2023-03-04T10:36:30.292Z,22.20
2023-03-04T10:39:18.265Z,37.35
2023-03-04T10:42:03.799Z,31.38
2023-03-04T10:44:34.630Z,27.73
2023-03-04T10:47:02.612Z,26.67
2023-03-04T10:49:30.170Z,35.03
2023-03-04T10:52:17.978Z,54.92
2023-03-04T10:54:53.210Z,34.90
2023-03-04T10:57:28.361Z,18.13
2023-03-04T11:00:01.778Z,20.55
2023-03-04T11:02:35.671Z,22.92
2023-03-04T11:05:15.008Z,32.90
2023-03-04T11:07:57.476Z,20.27
2023-03-04T11:10:39.869Z,22.17
2023-03-04T11:13:19.486Z,18.23
2023-03-04T11:15:58.347Z,21.15
2023-03-04T11:18:37.698Z,20.13
2023-03-04T11:21:07.379Z,22.27
2023-03-04T11:23:59.702Z,16.98
2023-03-04T11:26:53.171Z,21.30
2023-03-04T11:29:53.902Z,24.40
2023-03-04T11:32:36.719Z,16.55
2023-03-04T11:36:02.434Z,19.50
2023-03-04T11:38:43.281Z,21.50
2023-03-04T11:41:21.701Z,34.00
2023-03-04T11:43:49.341Z,17.90
2023-03-04T11:46:45.948Z,26.60
2023-03-04T11:50:02.234Z,27.15
2023-03-04T11:53:09.804Z,23.92
2023-03-04T11:55:58.182Z,28.05
2023-03-04T11:58:52.976Z,24.83
2023-03-04T12:01:54.009Z,24.60
2023-03-04T12:04:55.027Z,31.88
2023-03-04T12:08:05.330Z,25.15
2023-03-04T12:10:55.333Z,23.67
2023-03-04T12:13:30.567Z,19.15
2023-03-04T12:16:26.958Z,21.85
2023-03-04T12:19:06.135Z,17.02
2023-03-04T12:22:09.919Z,17.60
2023-03-04T12:25:24.403Z,19.60
2023-03-04T12:28:25.380Z,17.48
2023-03-04T12:31:07.602Z,25.30
2023-03-04T12:34:22.240Z,18.90
2023-03-04T12:37:08.416Z,21.92
2023-03-04T12:39:54.843Z,21.38
2023-03-04T12:43:02.920Z,19.13
2023-03-04T12:46:41.374Z,18.63
2023-03-04T12:49:42.221Z,20.63
2023-03-04T12:52:48.719Z,23.70
2023-03-04T12:55:21.764Z,22.90
2023-03-04T12:57:49.989Z,24.63
2023-03-04T13:00:20.906Z,27.95
2023-03-04T13:02:54.884Z,17.25
2023-03-04T13:05:43.343Z,19.10
2023-03-04T13:08:52.590Z,21.08
2023-03-04T13:14:17.625Z,17.05
2023-03-04T13:16:48.582Z,15.70
2023-03-04T13:19:47.179Z,20.92
2023-03-04T13:22:38.644Z,17.65
2023-03-04T13:25:47.758Z,29.40
2023-03-04T13:28:37.210Z,23.30
2023-03-04T13:31:20.067Z,30.48
2023-03-04T13:33:52.807Z,19.48
2023-03-04T13:37:01.976Z,27.02
2023-03-04T13:39:30.344Z,20.80
2023-03-04T13:41:58.678Z,23.90
2023-03-04T13:44:43.947Z,14.45
2023-03-04T13:47:20.832Z,18.38
2023-03-04T13:49:48.758Z,22.90
2023-03-04T13:52:40.970Z,15.68
2023-03-04T13:55:36.268Z,19.75
2023-03-04T13:58:26.257Z,15.55
2023-03-04T14:00:55.405Z,24.95
2023-03-04T14:03:29.877Z,25.25
2023-03-04T14:06:25.176Z,21.27
2023-03-04T14:08:53.953Z,19.63
2023-03-04T14:11:33.569Z,23.10
2023-03-04T14:14:06.741Z,25.88
2023-03-04T14:17:03.163Z,21.30
2023-03-04T14:19:43.618Z,19.80
2023-03-04T14:22:29.883Z,25.42
2023-03-04T14:25:13.464Z,29.55
2023-03-04T14:27:40.948Z,20.50
2023-03-04T14:30:41.374Z,27.77
2023-03-04T14:33:17.190Z,26.83
2023-03-04T14:35:51.560Z,30.70
2023-03-04T14:38:41.024Z,18.88
2023-03-04T14:41:27.708Z,29.08
2023-03-04T14:44:00.616Z,20.15
2023-03-04T14:46:43.156Z,17.23
2023-03-04T14:49:15.065Z,14.63
2023-03-04T14:51:48.242Z,29.98
2023-03-04T14:54:38.641Z,30.23
2023-03-04T14:57:31.758Z,24.23
2023-03-04T15:00:22.156Z,25.02
2023-03-04T15:02:58.849Z,33.95
2023-03-04T15:05:35.825Z,24.85
2023-03-04T15:08:18.331Z,23.15
2023-03-04T15:10:58.972Z,21.02
2023-03-04T15:13:51.463Z,23.23
2023-03-04T15:16:22.833Z,19.92
2023-03-04T15:19:02.680Z,20.65
2023-03-04T15:21:40.538Z,25.58
2023-03-04T15:24:11.043Z,28.00
2023-03-04T15:26:42.013Z,26.30
2023-03-04T15:29:21.876Z,56.78
2023-03-04T15:31:49.655Z,347.20
2023-03-04T15:34:19.212Z,139.18
2023-03-04T15:36:50.338Z,46.63
2023-03-04T15:39:19.251Z,67.05
2023-03-04T15:41:47.820Z,44.22
2023-03-04T15:44:15.210Z,46.85
2023-03-04T15:46:42.645Z,28.05
2023-03-04T15:49:11.479Z,33.33
2023-03-04T15:51:39.733Z,36.92
2023-03-04T15:54:13.375Z,35.67
2023-03-04T15:56:41.396Z,29.83
2023-03-04T15:59:16.790Z,29.55
2023-03-04T16:01:44.516Z,32.22
2023-03-04T16:04:16.184Z,26.90
2023-03-04T16:06:48.025Z,35.08
2023-03-04T16:09:19.114Z,31.33
2023-03-04T16:11:47.009Z,25.98
2023-03-04T16:14:16.070Z,32.60
2023-03-04T16:16:45.842Z,32.83
2023-03-04T16:19:13.187Z,26.15
2023-03-04T16:21:40.923Z,40.15
2023-03-04T16:24:18.298Z,39.80
2023-03-04T16:26:46.144Z,39.70
2023-03-04T16:29:14.879Z,30.05
2023-03-04T16:31:42.191Z,36.15
2023-03-04T16:34:09.435Z,36.35
2023-03-04T16:36:36.753Z,32.00
2023-03-04T16:39:12.482Z,27.88
2023-03-04T16:41:39.695Z,30.35
2023-03-04T16:44:08.784Z,31.10
2023-03-04T16:46:36.132Z,39.75
2023-03-04T16:49:03.594Z,31.17
2023-03-04T16:51:39.232Z,40.22
2023-03-04T16:54:10.552Z,43.83
2023-03-04T16:56:37.666Z,51.40
2023-03-04T16:59:04.971Z,55.83
2023-03-04T17:01:36.123Z,57.65
2023-03-04T17:04:03.540Z,56.80
2023-03-04T17:06:30.823Z,61.80
2023-03-04T17:08:58.114Z,43.58
2023-03-04T17:11:25.447Z,40.75
2023-03-04T17:13:53.001Z,32.55
2023-03-04T17:16:20.383Z,35.45
2023-03-04T17:18:47.748Z,36.30
2023-03-04T17:21:20.385Z,42.17
2023-03-04T17:23:47.671Z,43.92
2023-03-04T17:26:16.145Z,47.53
2023-03-04T17:28:43.441Z,76.80
2023-03-04T17:31:13.179Z,65.88
2023-03-04T17:33:41.104Z,76.15
2023-03-04T17:36:11.891Z,91.07
2023-03-04T17:38:40.015Z,85.25
2023-03-04T17:41:15.133Z,96.88
2023-03-04T17:43:50.695Z,137.90
2023-03-04T17:46:21.245Z,70.20
2023-03-04T17:48:49.492Z,63.20
2023-03-04T17:51:16.708Z,47.65
2023-03-04T17:53:43.795Z,47.33
2023-03-04T17:56:11.934Z,40.42
2023-03-04T17:58:39.767Z,52.38
2023-03-04T18:01:20.091Z,64.50
2023-03-04T18:03:48.200Z,69.20
2023-03-04T18:06:16.549Z,74.82
2023-03-04T18:08:45.021Z,71.22
2023-03-04T18:11:12.659Z,79.28
2023-03-04T18:13:42.218Z,89.75
2023-03-04T18:16:11.348Z,74.47
2023-03-04T18:18:38.547Z,86.40
2023-03-04T18:21:06.157Z,81.30
2023-03-04T18:23:33.639Z,79.80
2023-03-04T18:26:02.357Z,62.65
2023-03-04T18:28:29.827Z,44.10
2023-03-04T18:30:57.226Z,47.13
2023-03-04T18:33:24.652Z,46.33
2023-03-04T18:36:02.119Z,43.38
2023-03-04T18:38:30.723Z,50.55
2023-03-04T18:41:08.283Z,54.70
2023-03-04T18:43:35.822Z,66.38
2023-03-04T18:46:10.676Z,50.40
2023-03-04T18:48:45.881Z,51.50
2023-03-04T18:51:13.059Z,52.95
2023-03-04T18:53:40.438Z,41.40
2023-03-04T18:56:16.282Z,53.40
2023-03-04T18:58:47.030Z,54.70
2023-03-04T19:01:16.334Z,55.97
2023-03-04T19:03:44.945Z,57.85
2023-03-04T19:06:12.626Z,55.53
2023-03-04T19:08:39.790Z,54.83
2023-03-04T19:11:07.105Z,74.85
2023-03-04T19:13:34.650Z,73.57
2023-03-04T19:16:01.946Z,62.05
2023-03-04T19:18:29.294Z,54.83
2023-03-04T19:21:00.028Z,58.88
2023-03-04T19:23:28.707Z,54.97
2023-03-04T19:25:55.979Z,70.07
2023-03-04T19:28:23.737Z,56.40
2023-03-04T19:30:53.248Z,60.30
2023-03-04T19:33:20.646Z,68.07
2023-03-04T19:35:48.168Z,61.28
2023-03-04T19:38:15.398Z,65.20
2023-03-04T19:40:46.086Z,64.45
2023-03-04T19:43:14.227Z,61.03
2023-03-04T19:45:41.731Z,72.90
2023-03-04T19:48:08.922Z,60.00
2023-03-04T19:50:36.240Z,74.40
2023-03-04T19:53:03.454Z,64.03
2023-03-04T19:55:31.158Z,55.92
2023-03-04T19:57:58.314Z,57.85
2023-03-04T20:00:25.772Z,54.60
2023-03-04T20:02:55.489Z,52.85
2023-03-04T20:05:22.684Z,55.58
2023-03-04T20:07:49.831Z,56.50
2023-03-04T20:10:18.521Z,52.15
2023-03-04T20:12:45.695Z,58.05
2023-03-04T20:15:12.802Z,44.78
2023-03-04T20:17:40.037Z,54.55
2023-03-04T20:20:10.017Z,54.97
2023-03-04T20:22:38.059Z,71.22
2023-03-04T20:25:05.848Z,63.28
2023-03-04T20:27:33.172Z,67.43
2023-03-04T20:30:03.256Z,52.75
2023-03-04T20:32:31.127Z,61.70
2023-03-04T20:34:58.372Z,57.47
2023-03-04T20:37:25.562Z,61.28
2023-03-04T20:39:52.712Z,53.88
2023-03-04T20:42:19.926Z,53.47
2023-03-04T20:44:47.154Z,57.38
2023-03-04T20:47:14.298Z,51.13
2023-03-04T20:49:41.712Z,48.00
2023-03-04T20:52:09.680Z,46.08
2023-03-04T20:54:38.442Z,51.45
2023-03-04T20:57:07.374Z,45.03
2023-03-04T20:59:35.687Z,60.95
2023-03-04T21:02:04.499Z,57.67
2023-03-04T21:04:33.913Z,54.35
2023-03-04T21:09:29.150Z,51.97
2023-03-04T21:11:56.589Z,54.92
2023-03-04T21:14:29.657Z,60.45
2023-03-04T21:17:00.610Z,51.78
2023-03-04T21:19:33.080Z,55.58
2023-03-04T21:22:01.588Z,60.85
2023-03-04T21:24:32.866Z,46.47
2023-03-04T21:27:00.974Z,51.53
2023-03-04T21:29:28.650Z,53.67
2023-03-04T21:32:26.472Z,54.03
2023-03-04T21:34:55.119Z,52.58
2023-03-04T21:37:24.619Z,58.30
2023-03-04T21:39:52.238Z,52.70
2023-03-04T21:42:19.585Z,59.35
2023-03-04T21:44:51.182Z,51.50
2023-03-04T21:47:20.417Z,57.75
2023-03-04T21:49:47.677Z,41.42
2023-03-04T21:52:15.050Z,47.72
2023-03-04T21:54:42.385Z,50.33
2023-03-04T21:57:09.980Z,50.35
2023-03-04T21:59:39.089Z,46.40
2023-03-04T22:02:20.603Z,51.60
2023-03-04T22:04:48.315Z,37.20
2023-03-04T22:07:16.316Z,52.72
2023-03-04T22:09:43.622Z,43.40
2023-03-04T22:12:10.837Z,40.17
2023-03-04T22:14:38.129Z,43.03
2023-03-04T22:17:05.470Z,38.95
2023-03-04T22:19:33.263Z,35.72
2023-03-04T22:22:00.551Z,54.55
2023-03-04T22:24:28.300Z,50.22
2023-03-04T22:26:57.023Z,54.28
2023-03-04T22:29:24.153Z,41.97
2023-03-04T22:31:51.440Z,45.65
2023-03-04T22:34:19.055Z,47.80
2023-03-04T22:36:48.581Z,43.97
2023-03-04T22:39:18.669Z,44.13
2023-03-04T22:41:46.371Z,44.33
2023-03-04T22:44:13.767Z,39.65
2023-03-04T22:46:41.615Z,36.95
2023-03-04T22:49:12.245Z,33.97
2023-03-04T22:51:42.354Z,41.58
2023-03-04T22:54:17.845Z,40.45
2023-03-04T22:56:45.679Z,30.95
2023-03-04T22:59:13.497Z,31.23
2023-03-04T23:01:41.223Z,29.80
2023-03-04T23:04:08.434Z,39.00
2023-03-04T23:06:36.886Z,31.50
2023-03-04T23:09:04.348Z,29.45
2023-03-04T23:11:34.798Z,31.02
2023-03-04T23:14:06.349Z,37.17
2023-03-04T23:16:38.029Z,34.20
2023-03-04T23:19:06.509Z,37.80
2023-03-04T23:21:34.646Z,43.25
2023-03-04T23:24:04.052Z,35.65
2023-03-04T23:26:35.111Z,31.52
2023-03-04T23:29:05.312Z,36.47
2023-03-04T23:31:34.055Z,36.33
2023-03-04T23:34:02.873Z,32.35
2023-03-04T23:36:33.802Z,38.15
2023-03-04T23:39:01.466Z,28.38
2023-03-04T23:41:30.652Z,35.95
2023-03-04T23:43:59.945Z,34.28
2023-03-04T23:46:28.258Z,35.55
2023-03-04T23:48:55.639Z,33.10
2023-03-04T23:51:28.079Z,37.25
2023-03-04T23:53:55.834Z,34.00
2023-03-04T23:56:28.085Z,33.60
2023-03-04T23:58:56.958Z,36.78
